sensor_id;sensor_type;location;lat;lon;timestamp;pressure;altitude;pressure_sealevel;temperature;humidity
80335;BME280;69653;52.674;13.574;2023-07-31T00:00:58;100278.44;;;14.39;89.28
80335;BME280;69653;52.674;13.574;2023-07-31T00:03:24;100266.94;;;14.37;89.00
80335;BME280;69653;52.674;13.574;2023-07-31T00:05:49;100278.88;;;14.41;89.24
80335;BME280;69653;52.674;13.574;2023-07-31T00:08:14;100275.84;;;14.34;88.92
80335;BME280;69653;52.674;13.574;2023-07-31T00:10:39;100281.19;;;14.31;89.29
80335;BME280;69653;52.674;13.574;2023-07-31T00:13:05;100291.88;;;14.32;88.98
80335;BME280;69653;52.674;13.574;2023-07-31T00:15:30;100287.00;;;14.29;89.14
80335;BME280;69653;52.674;13.574;2023-07-31T00:17:55;100274.94;;;14.22;89.15
80335;BME280;69653;52.674;13.574;2023-07-31T00:20:21;100266.53;;;14.18;88.97
80335;BME280;69653;52.674;13.574;2023-07-31T00:22:46;100271.41;;;14.13;89.01
80335;BME280;69653;52.674;13.574;2023-07-31T00:25:11;100276.47;;;14.11;89.62
80335;BME280;69653;52.674;13.574;2023-07-31T00:27:37;100260.75;;;14.11;89.57
80335;BME280;69653;52.674;13.574;2023-07-31T00:30:02;100263.56;;;14.02;89.33
80335;BME280;69653;52.674;13.574;2023-07-31T00:32:28;100266.63;;;14.01;89.32
80335;BME280;69653;52.674;13.574;2023-07-31T00:34:53;100271.66;;;13.99;89.47
80335;BME280;69653;52.674;13.574;2023-07-31T00:37:19;100276.50;;;14.02;89.49
80335;BME280;69653;52.674;13.574;2023-07-31T00:39:44;100262.44;;;13.95;89.15
80335;BME280;69653;52.674;13.574;2023-07-31T00:42:09;100254.38;;;13.90;89.71
80335;BME280;69653;52.674;13.574;2023-07-31T00:44:34;100267.13;;;13.94;89.63
80335;BME280;69653;52.674;13.574;2023-07-31T00:47:00;100266.66;;;13.92;89.76
80335;BME280;69653;52.674;13.574;2023-07-31T00:49:26;100252.28;;;13.87;89.26
80335;BME280;69653;52.674;13.574;2023-07-31T00:51:52;100254.09;;;13.83;89.44
80335;BME280;69653;52.674;13.574;2023-07-31T00:54:17;100256.03;;;13.74;89.66
80335;BME280;69653;52.674;13.574;2023-07-31T00:56:45;100241.69;;;13.68;89.75
80335;BME280;69653;52.674;13.574;2023-07-31T00:59:10;100235.72;;;13.66;89.48
80335;BME280;69653;52.674;13.574;2023-07-31T01:01:36;100230.88;;;13.63;89.34
80335;BME280;69653;52.674;13.574;2023-07-31T01:04:01;100239.28;;;13.67;89.55
80335;BME280;69653;52.674;13.574;2023-07-31T01:06:37;100240.44;;;13.66;89.65
80335;BME280;69653;52.674;13.574;2023-07-31T01:09:19;100236.06;;;13.65;89.25
80335;BME280;69653;52.674;13.574;2023-07-31T01:11:52;100229.44;;;13.66;89.92
80335;BME280;69653;52.674;13.574;2023-07-31T01:14:17;100224.44;;;13.59;89.74
80335;BME280;69653;52.674;13.574;2023-07-31T01:16:43;100225.38;;;13.63;89.46
80335;BME280;69653;52.674;13.574;2023-07-31T01:19:09;100233.47;;;13.68;89.61
80335;BME280;69653;52.674;13.574;2023-07-31T01:24:25;100230.19;;;13.75;89.23
80335;BME280;69653;52.674;13.574;2023-07-31T01:26:57;100230.34;;;13.78;89.01
80335;BME280;69653;52.674;13.574;2023-07-31T01:29:35;100230.31;;;13.87;88.70
80335;BME280;69653;52.674;13.574;2023-07-31T01:32:04;100230.78;;;13.89;88.86
80335;BME280;69653;52.674;13.574;2023-07-31T01:34:31;100221.56;;;13.85;88.59
80335;BME280;69653;52.674;13.574;2023-07-31T01:36:57;100232.22;;;13.95;88.36
80335;BME280;69653;52.674;13.574;2023-07-31T01:39:23;100226.38;;;13.96;88.67
80335;BME280;69653;52.674;13.574;2023-07-31T01:41:49;100230.41;;;13.99;88.32
80335;BME280;69653;52.674;13.574;2023-07-31T01:44:14;100219.88;;;14.01;88.21
80335;BME280;69653;52.674;13.574;2023-07-31T01:46:39;100221.28;;;14.07;87.92
80335;BME280;69653;52.674;13.574;2023-07-31T01:49:05;100221.16;;;14.03;87.88
80335;BME280;69653;52.674;13.574;2023-07-31T01:51:31;100234.59;;;14.05;88.27
80335;BME280;69653;52.674;13.574;2023-07-31T01:54:02;100239.56;;;14.12;88.22
80335;BME280;69653;52.674;13.574;2023-07-31T01:56:27;100240.84;;;14.14;89.54
80335;BME280;69653;52.674;13.574;2023-07-31T01:58:52;100231.31;;;14.12;89.88
80335;BME280;69653;52.674;13.574;2023-07-31T02:01:18;100234.53;;;14.14;90.52
80335;BME280;69653;52.674;13.574;2023-07-31T02:03:43;100238.75;;;14.11;90.93
80335;BME280;69653;52.674;13.574;2023-07-31T02:06:08;100236.81;;;14.12;90.62
80335;BME280;69653;52.674;13.574;2023-07-31T02:08:34;100229.09;;;14.05;91.09
80335;BME280;69653;52.674;13.574;2023-07-31T02:10:59;100235.25;;;14.02;91.20
80335;BME280;69653;52.674;13.574;2023-07-31T02:13:25;100224.72;;;14.04;91.58
80335;BME280;69653;52.674;13.574;2023-07-31T02:15:50;100227.00;;;14.02;91.92
80335;BME280;69653;52.674;13.574;2023-07-31T02:18:16;100216.81;;;14.02;92.30
80335;BME280;69653;52.674;13.574;2023-07-31T02:20:41;100214.38;;;14.01;92.59
80335;BME280;69653;52.674;13.574;2023-07-31T02:23:06;100216.47;;;14.04;92.78
80335;BME280;69653;52.674;13.574;2023-07-31T02:25:32;100224.72;;;14.04;92.59
80335;BME280;69653;52.674;13.574;2023-07-31T02:27:57;100217.81;;;13.98;92.98
80335;BME280;69653;52.674;13.574;2023-07-31T02:30:22;100214.56;;;13.96;93.29
80335;BME280;69653;52.674;13.574;2023-07-31T02:32:48;100199.09;;;13.91;93.02
80335;BME280;69653;52.674;13.574;2023-07-31T02:35:13;100192.44;;;13.92;93.27
80335;BME280;69653;52.674;13.574;2023-07-31T02:37:41;100209.06;;;13.96;93.35
80335;BME280;69653;52.674;13.574;2023-07-31T02:40:07;100198.59;;;13.89;93.55
80335;BME280;69653;52.674;13.574;2023-07-31T02:42:32;100186.34;;;13.87;93.39
80335;BME280;69653;52.674;13.574;2023-07-31T02:44:57;100198.59;;;13.89;93.75
80335;BME280;69653;52.674;13.574;2023-07-31T02:47:23;100196.00;;;13.93;94.33
80335;BME280;69653;52.674;13.574;2023-07-31T02:49:48;100183.59;;;13.87;94.57
80335;BME280;69653;52.674;13.574;2023-07-31T02:52:13;100194.53;;;13.95;94.61
80335;BME280;69653;52.674;13.574;2023-07-31T02:54:39;100181.28;;;13.89;94.13
80335;BME280;69653;52.674;13.574;2023-07-31T02:57:04;100179.03;;;13.91;94.88
80335;BME280;69653;52.674;13.574;2023-07-31T02:59:30;100185.50;;;13.95;95.03
80335;BME280;69653;52.674;13.574;2023-07-31T03:01:55;100175.94;;;13.92;94.69
80335;BME280;69653;52.674;13.574;2023-07-31T03:04:20;100185.50;;;13.95;95.21
80335;BME280;69653;52.674;13.574;2023-07-31T03:06:46;100183.41;;;13.92;94.19
80335;BME280;69653;52.674;13.574;2023-07-31T03:09:11;100185.19;;;13.88;93.85
80335;BME280;69653;52.674;13.574;2023-07-31T03:11:36;100180.34;;;13.85;94.35
80335;BME280;69653;52.674;13.574;2023-07-31T03:14:02;100185.84;;;13.85;94.17
80335;BME280;69653;52.674;13.574;2023-07-31T03:16:27;100175.19;;;13.83;94.14
80335;BME280;69653;52.674;13.574;2023-07-31T03:18:54;100184.72;;;13.86;94.34
80335;BME280;69653;52.674;13.574;2023-07-31T03:21:19;100192.44;;;13.92;94.76
80335;BME280;69653;52.674;13.574;2023-07-31T03:23:44;100186.47;;;13.90;94.13
80335;BME280;69653;52.674;13.574;2023-07-31T03:26:10;100175.34;;;13.87;94.24
80335;BME280;69653;52.674;13.574;2023-07-31T03:28:35;100168.84;;;13.91;94.19
80335;BME280;69653;52.674;13.574;2023-07-31T03:31:01;100169.19;;;13.90;94.79
80335;BME280;69653;52.674;13.574;2023-07-31T03:33:26;100167.84;;;13.96;94.83
80335;BME280;69653;52.674;13.574;2023-07-31T03:35:52;100164.75;;;13.97;94.72
80335;BME280;69653;52.674;13.574;2023-07-31T03:38:18;100158.00;;;13.95;95.15
80335;BME280;69653;52.674;13.574;2023-07-31T03:40:43;100164.44;;;13.99;94.98
80335;BME280;69653;52.674;13.574;2023-07-31T03:43:08;100153.44;;;13.99;95.06
80335;BME280;69653;52.674;13.574;2023-07-31T03:45:34;100147.94;;;13.99;95.07
80335;BME280;69653;52.674;13.574;2023-07-31T03:47:59;100155.97;;;14.04;95.04
80335;BME280;69653;52.674;13.574;2023-07-31T03:50:25;100152.09;;;14.05;94.77
80335;BME280;69653;52.674;13.574;2023-07-31T03:52:50;100148.91;;;14.03;94.83
80335;BME280;69653;52.674;13.574;2023-07-31T03:55:15;100150.47;;;14.04;95.10
80335;BME280;69653;52.674;13.574;2023-07-31T03:57:41;100141.09;;;14.05;94.76
80335;BME280;69653;52.674;13.574;2023-07-31T04:00:06;100144.47;;;14.11;95.02
80335;BME280;69653;52.674;13.574;2023-07-31T04:02:32;100144.81;;;14.09;94.49
80335;BME280;69653;52.674;13.574;2023-07-31T04:04:58;100132.69;;;14.10;94.50
80335;BME280;69653;52.674;13.574;2023-07-31T04:07:23;100135.06;;;14.12;94.21
80335;BME280;69653;52.674;13.574;2023-07-31T04:09:48;100133.81;;;14.09;94.31
80335;BME280;69653;52.674;13.574;2023-07-31T04:12:14;100130.38;;;14.12;93.90
80335;BME280;69653;52.674;13.574;2023-07-31T04:14:39;100118.56;;;14.12;94.34
80335;BME280;69653;52.674;13.574;2023-07-31T04:17:04;100112.25;;;14.11;94.35
80335;BME280;69653;52.674;13.574;2023-07-31T04:19:30;100110.47;;;14.15;94.17
80335;BME280;69653;52.674;13.574;2023-07-31T04:21:55;100109.50;;;14.11;94.15
80335;BME280;69653;52.674;13.574;2023-07-31T04:24:20;100118.38;;;14.17;94.20
80335;BME280;69653;52.674;13.574;2023-07-31T04:26:53;100117.25;;;14.18;94.22
80335;BME280;69653;52.674;13.574;2023-07-31T04:29:19;100115.16;;;14.15;94.42
80335;BME280;69653;52.674;13.574;2023-07-31T04:31:44;100113.69;;;14.17;94.67
80335;BME280;69653;52.674;13.574;2023-07-31T04:34:09;100117.72;;;14.20;94.17
80335;BME280;69653;52.674;13.574;2023-07-31T04:36:35;100117.84;;;14.23;94.03
80335;BME280;69653;52.674;13.574;2023-07-31T04:39:00;100117.16;;;14.26;94.08
80335;BME280;69653;52.674;13.574;2023-07-31T04:41:26;100116.03;;;14.27;93.85
80335;BME280;69653;52.674;13.574;2023-07-31T04:43:52;100110.53;;;14.27;93.93
80335;BME280;69653;52.674;13.574;2023-07-31T04:46:17;100114.22;;;14.31;93.37
80335;BME280;69653;52.674;13.574;2023-07-31T04:48:42;100111.94;;;14.33;93.54
80335;BME280;69653;52.674;13.574;2023-07-31T04:51:08;100104.50;;;14.34;93.16
80335;BME280;69653;52.674;13.574;2023-07-31T04:53:34;100110.28;;;14.41;93.33
80335;BME280;69653;52.674;13.574;2023-07-31T04:55:59;100113.66;;;14.46;93.43
80335;BME280;69653;52.674;13.574;2023-07-31T04:58:25;100111.56;;;14.43;93.39
80335;BME280;69653;52.674;13.574;2023-07-31T05:00:50;100115.59;;;14.46;93.01
80335;BME280;69653;52.674;13.574;2023-07-31T05:03:15;100110.91;;;14.46;92.85
80335;BME280;69653;52.674;13.574;2023-07-31T05:05:42;100117.53;;;14.45;93.07
80335;BME280;69653;52.674;13.574;2023-07-31T05:08:07;100113.97;;;14.45;93.58
80335;BME280;69653;52.674;13.574;2023-07-31T05:10:32;100112.84;;;14.46;94.04
80335;BME280;69653;52.674;13.574;2023-07-31T05:12:58;100110.53;;;14.48;93.91
80335;BME280;69653;52.674;13.574;2023-07-31T05:15:23;100110.69;;;14.51;93.48
80335;BME280;69653;52.674;13.574;2023-07-31T05:17:48;100107.72;;;14.56;93.27
80335;BME280;69653;52.674;13.574;2023-07-31T05:20:14;100111.72;;;14.59;93.11
80335;BME280;69653;52.674;13.574;2023-07-31T05:22:40;100106.22;;;14.59;93.09
80335;BME280;69653;52.674;13.574;2023-07-31T05:25:05;100114.63;;;14.63;93.01
80335;BME280;69653;52.674;13.574;2023-07-31T05:27:43;100103.16;;;14.61;93.27
80335;BME280;69653;52.674;13.574;2023-07-31T05:30:08;100096.84;;;14.60;92.25
80335;BME280;69653;52.674;13.574;2023-07-31T05:32:33;100098.66;;;14.56;92.79
80335;BME280;69653;52.674;13.574;2023-07-31T05:34:59;100104.41;;;14.63;93.66
80335;BME280;69653;52.674;13.574;2023-07-31T05:37:24;100108.34;;;14.74;94.12
80335;BME280;69653;52.674;13.574;2023-07-31T05:39:49;100100.22;;;14.78;93.49
80335;BME280;69653;52.674;13.574;2023-07-31T05:42:15;100104.84;;;14.86;93.02
80335;BME280;69653;52.674;13.574;2023-07-31T05:44:41;100093.13;;;14.89;92.95
80335;BME280;69653;52.674;13.574;2023-07-31T05:47:06;100101.19;;;14.94;92.14
80335;BME280;69653;52.674;13.574;2023-07-31T05:49:31;100094.53;;;14.95;92.36
80335;BME280;69653;52.674;13.574;2023-07-31T05:51:57;100098.22;;;14.99;91.89
80335;BME280;69653;52.674;13.574;2023-07-31T05:54:22;100099.03;;;14.99;91.74
80335;BME280;69653;52.674;13.574;2023-07-31T05:56:47;100095.91;;;15.01;91.63
80335;BME280;69653;52.674;13.574;2023-07-31T05:59:13;100099.16;;;15.03;92.08
80335;BME280;69653;52.674;13.574;2023-07-31T06:01:38;100101.09;;;15.02;92.04
80335;BME280;69653;52.674;13.574;2023-07-31T06:04:04;100092.72;;;14.99;91.71
80335;BME280;69653;52.674;13.574;2023-07-31T06:06:29;100087.22;;;14.99;92.31
80335;BME280;69653;52.674;13.574;2023-07-31T06:08:54;100103.97;;;15.06;91.49
80335;BME280;69653;52.674;13.574;2023-07-31T06:11:20;100100.63;;;15.00;91.97
80335;BME280;69653;52.674;13.574;2023-07-31T06:13:46;100092.03;;;15.02;92.53
80335;BME280;69653;52.674;13.574;2023-07-31T06:16:13;100098.69;;;15.13;92.94
80335;BME280;69653;52.674;13.574;2023-07-31T06:18:38;100094.94;;;15.18;93.50
80335;BME280;69653;52.674;13.574;2023-07-31T06:21:03;100098.97;;;15.32;92.40
80335;BME280;69653;52.674;13.574;2023-07-31T06:23:28;100095.16;;;15.25;90.63
80335;BME280;69653;52.674;13.574;2023-07-31T06:25:54;100094.81;;;15.26;91.95
80335;BME280;69653;52.674;13.574;2023-07-31T06:28:19;100104.00;;;15.30;91.68
80335;BME280;69653;52.674;13.574;2023-07-31T06:30:44;100099.28;;;15.31;91.97
80335;BME280;69653;52.674;13.574;2023-07-31T06:33:10;100088.75;;;15.33;91.53
80335;BME280;69653;52.674;13.574;2023-07-31T06:35:35;100093.69;;;15.39;91.28
80335;BME280;69653;52.674;13.574;2023-07-31T06:38:00;100089.44;;;15.42;91.96
80335;BME280;69653;52.674;13.574;2023-07-31T06:40:27;100096.00;;;15.49;91.13
80335;BME280;69653;52.674;13.574;2023-07-31T06:42:52;100100.16;;;15.56;91.48
80335;BME280;69653;52.674;13.574;2023-07-31T06:45:18;100087.16;;;15.56;91.95
80335;BME280;69653;52.674;13.574;2023-07-31T06:47:43;100078.66;;;15.49;91.58
80335;BME280;69653;52.674;13.574;2023-07-31T06:50:08;100089.00;;;15.64;91.53
80335;BME280;69653;52.674;13.574;2023-07-31T06:52:34;100080.13;;;15.46;91.12
80335;BME280;69653;52.674;13.574;2023-07-31T06:55:03;100087.25;;;15.47;92.30
80335;BME280;69653;52.674;13.574;2023-07-31T06:57:29;100088.06;;;15.48;91.22
80335;BME280;69653;52.674;13.574;2023-07-31T06:59:55;100080.28;;;15.50;91.73
80335;BME280;69653;52.674;13.574;2023-07-31T07:02:20;100087.03;;;15.52;90.62
80335;BME280;69653;52.674;13.574;2023-07-31T07:04:45;100080.28;;;15.50;92.44
80335;BME280;69653;52.674;13.574;2023-07-31T07:07:11;100086.00;;;15.57;92.58
80335;BME280;69653;52.674;13.574;2023-07-31T07:09:36;100080.16;;;15.59;91.77
80335;BME280;69653;52.674;13.574;2023-07-31T07:12:02;100073.25;;;15.65;92.25
80335;BME280;69653;52.674;13.574;2023-07-31T07:14:27;100073.75;;;15.67;91.24
80335;BME280;69653;52.674;13.574;2023-07-31T07:16:52;100069.25;;;15.62;91.83
80335;BME280;69653;52.674;13.574;2023-07-31T07:19:18;100067.97;;;15.72;92.46
80335;BME280;69653;52.674;13.574;2023-07-31T07:21:43;100079.56;;;15.77;93.17
80335;BME280;69653;52.674;13.574;2023-07-31T07:24:08;100066.50;;;15.74;92.06
80335;BME280;69653;52.674;13.574;2023-07-31T07:26:33;100073.94;;;15.74;91.18
80335;BME280;69653;52.674;13.574;2023-07-31T07:28:59;100081.97;;;15.79;91.04
80335;BME280;69653;52.674;13.574;2023-07-31T07:31:27;100072.78;;;15.75;91.52
80335;BME280;69653;52.674;13.574;2023-07-31T07:33:52;100071.88;;;15.71;91.59
80335;BME280;69653;52.674;13.574;2023-07-31T07:36:17;100059.59;;;15.68;91.75
80335;BME280;69653;52.674;13.574;2023-07-31T07:38:42;100066.03;;;15.72;92.11
80335;BME280;69653;52.674;13.574;2023-07-31T07:41:08;100066.25;;;15.79;92.18
80335;BME280;69653;52.674;13.574;2023-07-31T07:43:33;100070.50;;;15.77;92.26
80335;BME280;69653;52.674;13.574;2023-07-31T07:45:58;100063.16;;;15.81;91.99
80335;BME280;69653;52.674;13.574;2023-07-31T07:48:24;100063.03;;;15.77;92.35
80335;BME280;69653;52.674;13.574;2023-07-31T07:50:50;100053.97;;;15.77;92.27
80335;BME280;69653;52.674;13.574;2023-07-31T07:53:15;100063.69;;;15.86;91.80
80335;BME280;69653;52.674;13.574;2023-07-31T07:55:41;100055.31;;;15.83;91.30
80335;BME280;69653;52.674;13.574;2023-07-31T07:58:06;100054.97;;;15.84;91.64
80335;BME280;69653;52.674;13.574;2023-07-31T08:00:31;100052.94;;;15.81;91.24
80335;BME280;69653;52.674;13.574;2023-07-31T08:02:56;100039.59;;;15.83;90.18
80335;BME280;69653;52.674;13.574;2023-07-31T08:05:23;100057.16;;;15.91;91.27
80335;BME280;69653;52.674;13.574;2023-07-31T08:07:48;100050.59;;;15.95;90.41
80335;BME280;69653;52.674;13.574;2023-07-31T08:10:14;100055.97;;;16.04;89.73
80335;BME280;69653;52.674;13.574;2023-07-31T08:12:39;100050.19;;;16.09;89.45
80335;BME280;69653;52.674;13.574;2023-07-31T08:15:05;100054.88;;;16.21;89.62
80335;BME280;69653;52.674;13.574;2023-07-31T08:17:30;100052.31;;;16.28;88.83
80335;BME280;69653;52.674;13.574;2023-07-31T08:19:56;100049.94;;;16.42;89.27
80335;BME280;69653;52.674;13.574;2023-07-31T08:22:23;100042.22;;;16.47;88.22
80335;BME280;69653;52.674;13.574;2023-07-31T08:24:48;100036.16;;;16.42;87.65
80335;BME280;69653;52.674;13.574;2023-07-31T08:27:13;100040.09;;;16.41;88.91
80335;BME280;69653;52.674;13.574;2023-07-31T08:29:39;100036.56;;;16.28;88.95
80335;BME280;69653;52.674;13.574;2023-07-31T08:32:05;100041.03;;;16.33;89.79
80335;BME280;69653;52.674;13.574;2023-07-31T08:34:30;100035.53;;;16.33;88.54
80335;BME280;69653;52.674;13.574;2023-07-31T08:36:55;100027.59;;;16.31;88.20
80335;BME280;69653;52.674;13.574;2023-07-31T08:39:20;100027.16;;;16.29;88.78
80335;BME280;69653;52.674;13.574;2023-07-31T08:41:47;100032.47;;;16.22;89.14
80335;BME280;69653;52.674;13.574;2023-07-31T08:44:13;100039.84;;;16.18;89.95
80335;BME280;69653;52.674;13.574;2023-07-31T08:46:39;100032.75;;;16.05;90.86
80335;BME280;69653;52.674;13.574;2023-07-31T08:49:05;100025.16;;;16.02;90.52
80335;BME280;69653;52.674;13.574;2023-07-31T08:51:34;100030.09;;;16.09;90.68
80335;BME280;69653;52.674;13.574;2023-07-31T08:53:59;100025.03;;;16.11;90.68
80335;BME280;69653;52.674;13.574;2023-07-31T08:56:25;100026.03;;;16.18;90.82
80335;BME280;69653;52.674;13.574;2023-07-31T08:58:52;100036.00;;;16.23;91.64
80335;BME280;69653;52.674;13.574;2023-07-31T09:01:18;100030.47;;;16.23;90.96
80335;BME280;69653;52.674;13.574;2023-07-31T09:03:45;100035.66;;;16.24;90.78
80335;BME280;69653;52.674;13.574;2023-07-31T09:06:12;100036.59;;;16.16;90.58
80335;BME280;69653;52.674;13.574;2023-07-31T09:08:41;100039.13;;;16.21;90.96
80335;BME280;69653;52.674;13.574;2023-07-31T09:11:07;100033.25;;;16.23;91.05
80335;BME280;69653;52.674;13.574;2023-07-31T09:13:32;100032.84;;;16.36;90.66
80335;BME280;69653;52.674;13.574;2023-07-31T09:15:58;100047.28;;;16.45;90.00
80335;BME280;69653;52.674;13.574;2023-07-31T09:18:24;100032.91;;;16.52;89.19
80335;BME280;69653;52.674;13.574;2023-07-31T09:21:03;100034.31;;;16.74;88.35
80335;BME280;69653;52.674;13.574;2023-07-31T09:23:40;100034.91;;;16.83;87.54
80335;BME280;69653;52.674;13.574;2023-07-31T09:26:06;100032.72;;;16.88;87.67
80335;BME280;69653;52.674;13.574;2023-07-31T09:28:32;100028.91;;;16.93;87.79
80335;BME280;69653;52.674;13.574;2023-07-31T09:30:57;100027.47;;;16.99;86.02
80335;BME280;69653;52.674;13.574;2023-07-31T09:33:22;100022.38;;;17.01;86.51
80335;BME280;69653;52.674;13.574;2023-07-31T09:35:47;100020.22;;;16.94;86.43
80335;BME280;69653;52.674;13.574;2023-07-31T09:38:14;100026.91;;;16.93;87.16
80335;BME280;69653;52.674;13.574;2023-07-31T09:40:45;100026.81;;;16.90;87.32
80335;BME280;69653;52.674;13.574;2023-07-31T09:43:12;100026.81;;;16.90;88.08
80335;BME280;69653;52.674;13.574;2023-07-31T09:45:39;100023.19;;;16.86;87.81
80335;BME280;69653;52.674;13.574;2023-07-31T09:48:14;100020.69;;;16.96;88.13
80335;BME280;69653;52.674;13.574;2023-07-31T09:50:44;100007.47;;;16.90;87.14
80335;BME280;69653;52.674;13.574;2023-07-31T09:53:10;100015.25;;;16.84;87.62
80335;BME280;69653;52.674;13.574;2023-07-31T09:55:36;100023.41;;;16.65;88.67
80335;BME280;69653;52.674;13.574;2023-07-31T09:58:07;100017.50;;;16.51;89.90
80335;BME280;69653;52.674;13.574;2023-07-31T10:00:32;100007.06;;;16.44;90.38
80335;BME280;69653;52.674;13.574;2023-07-31T10:02:59;100014.06;;;16.42;90.88
80335;BME280;69653;52.674;13.574;2023-07-31T10:05:34;100012.22;;;16.46;91.71
80335;BME280;69653;52.674;13.574;2023-07-31T10:08:00;100018.91;;;16.45;91.24
80335;BME280;69653;52.674;13.574;2023-07-31T10:10:26;100010.63;;;16.45;91.21
80335;BME280;69653;52.674;13.574;2023-07-31T10:12:53;100008.41;;;16.50;90.61
80335;BME280;69653;52.674;13.574;2023-07-31T10:15:19;100008.47;;;16.66;90.80
80335;BME280;69653;52.674;13.574;2023-07-31T10:17:48;100008.31;;;16.75;90.51
80335;BME280;69653;52.674;13.574;2023-07-31T10:20:14;100005.44;;;16.87;90.30
80335;BME280;69653;52.674;13.574;2023-07-31T10:22:42;100000.91;;;16.94;89.57
80335;BME280;69653;52.674;13.574;2023-07-31T10:25:08;100010.63;;;17.04;88.09
80335;BME280;69653;52.674;13.574;2023-07-31T10:27:35;100004.38;;;17.07;88.32
80335;BME280;69653;52.674;13.574;2023-07-31T10:30:03;99996.09;;;17.07;88.03
80335;BME280;69653;52.674;13.574;2023-07-31T10:32:31;100001.97;;;17.06;86.38
80335;BME280;69653;52.674;13.574;2023-07-31T10:34:57;99982.53;;;17.02;87.00
80335;BME280;69653;52.674;13.574;2023-07-31T10:37:35;99995.72;;;17.09;86.00
80335;BME280;69653;52.674;13.574;2023-07-31T10:40:18;99995.47;;;17.14;85.96
80335;BME280;69653;52.674;13.574;2023-07-31T10:42:51;99994.22;;;17.11;87.19
80335;BME280;69653;52.674;13.574;2023-07-31T10:45:33;99988.53;;;17.04;87.69
80335;BME280;69653;52.674;13.574;2023-07-31T10:48:03;99987.56;;;16.96;87.91
80335;BME280;69653;52.674;13.574;2023-07-31T10:50:30;99989.69;;;16.87;88.08
80335;BME280;69653;52.674;13.574;2023-07-31T10:52:58;99994.47;;;16.90;88.62
80335;BME280;69653;52.674;13.574;2023-07-31T10:55:43;99993.84;;;16.66;90.03
80335;BME280;69653;52.674;13.574;2023-07-31T10:58:13;99991.34;;;16.61;91.23
80335;BME280;69653;52.674;13.574;2023-07-31T11:00:41;99985.31;;;16.71;92.26
80335;BME280;69653;52.674;13.574;2023-07-31T11:03:17;99970.59;;;16.82;90.41
80335;BME280;69653;52.674;13.574;2023-07-31T11:08:19;99971.31;;;16.95;88.32
80335;BME280;69653;52.674;13.574;2023-07-31T11:10:46;99974.59;;;17.16;89.37
80335;BME280;69653;52.674;13.574;2023-07-31T11:13:12;99973.16;;;17.38;88.65
80335;BME280;69653;52.674;13.574;2023-07-31T11:15:38;99965.84;;;17.65;87.17
80335;BME280;69653;52.674;13.574;2023-07-31T11:18:04;99964.06;;;18.11;85.79
80335;BME280;69653;52.674;13.574;2023-07-31T11:20:31;99969.09;;;18.66;82.70
80335;BME280;69653;52.674;13.574;2023-07-31T11:23:05;99962.72;;;19.11;81.65
80335;BME280;69653;52.674;13.574;2023-07-31T11:25:32;99966.94;;;19.28;79.98
80335;BME280;69653;52.674;13.574;2023-07-31T11:28:02;99950.03;;;19.36;78.75
80335;BME280;69653;52.674;13.574;2023-07-31T11:30:27;99944.81;;;19.31;78.38
80335;BME280;69653;52.674;13.574;2023-07-31T11:32:55;99953.00;;;19.24;78.66
80335;BME280;69653;52.674;13.574;2023-07-31T11:35:20;99951.84;;;18.99;78.25
80335;BME280;69653;52.674;13.574;2023-07-31T11:37:46;99944.72;;;18.98;78.88
80335;BME280;69653;52.674;13.574;2023-07-31T11:40:11;99950.47;;;19.12;77.47
80335;BME280;69653;52.674;13.574;2023-07-31T11:42:37;99941.09;;;19.20;76.59
80335;BME280;69653;52.674;13.574;2023-07-31T11:45:04;99935.88;;;19.15;76.17
80335;BME280;69653;52.674;13.574;2023-07-31T11:47:30;99941.50;;;19.22;76.78
80335;BME280;69653;52.674;13.574;2023-07-31T11:49:57;99937.84;;;19.15;76.47
80335;BME280;69653;52.674;13.574;2023-07-31T11:52:23;99936.59;;;19.38;75.40
80335;BME280;69653;52.674;13.574;2023-07-31T11:54:49;99923.31;;;19.51;75.32
80335;BME280;69653;52.674;13.574;2023-07-31T11:57:15;99924.00;;;20.04;72.89
80335;BME280;69653;52.674;13.574;2023-07-31T11:59:42;99921.22;;;20.04;73.16
80335;BME280;69653;52.674;13.574;2023-07-31T12:02:08;99919.25;;;20.05;72.76
80335;BME280;69653;52.674;13.574;2023-07-31T12:04:34;99933.03;;;19.98;72.48
80335;BME280;69653;52.674;13.574;2023-07-31T12:07:00;99920.25;;;19.90;73.20
80335;BME280;69653;52.674;13.574;2023-07-31T12:09:25;99922.75;;;19.65;71.75
80335;BME280;69653;52.674;13.574;2023-07-31T12:11:51;99928.59;;;19.60;72.20
80335;BME280;69653;52.674;13.574;2023-07-31T12:14:27;99920.94;;;19.50;69.99
80335;BME280;69653;52.674;13.574;2023-07-31T12:16:57;99929.16;;;19.43;70.35
80335;BME280;69653;52.674;13.574;2023-07-31T12:19:23;99920.59;;;19.28;70.53
80335;BME280;69653;52.674;13.574;2023-07-31T12:21:53;99917.38;;;19.23;70.30
80335;BME280;69653;52.674;13.574;2023-07-31T12:24:19;99924.97;;;19.29;71.30
80335;BME280;69653;52.674;13.574;2023-07-31T12:26:46;99917.81;;;19.28;69.73
80335;BME280;69653;52.674;13.574;2023-07-31T12:29:14;99910.47;;;19.13;69.83
80335;BME280;69653;52.674;13.574;2023-07-31T12:31:41;99926.63;;;19.08;72.90
80335;BME280;69653;52.674;13.574;2023-07-31T12:34:17;99924.09;;;18.73;76.24
80335;BME280;69653;52.674;13.574;2023-07-31T12:36:44;99933.78;;;18.40;78.76
80335;BME280;69653;52.674;13.574;2023-07-31T12:39:09;99935.59;;;18.10;80.23
80335;BME280;69653;52.674;13.574;2023-07-31T12:41:35;99926.41;;;18.06;81.64
80335;BME280;69653;52.674;13.574;2023-07-31T12:44:00;99909.53;;;17.92;81.64